ベルリン/テーゲル の空港の天気 - METARとTAF

ベルリン・テーゲル国際空港 ( EDDT / TXL ) - ドイツ ベルリン
飛行場実況気象(Metar)
観測時間12/14 07:20 CET (12/14 06:20 UTC)
風向・風速東 3m/s
視程10km以上
天気現象
少しの雲 雲底高度 430m
全天の8割程度の雲 雲底高度 1280m
気温1℃
湿度80%
気圧1025hPa
METAREDDT 140620Z 08006KT 030V120 9999 FEW014 BKN042 01/M02 Q1025 NOSIG
過去の天気等 Google飛行場航空写真 Wunderground天気予報

過去48時間のMETAR

飛行場予報(TAF)
発表時間: 12/14 06:00 CET (12/14 05:00 UTC)
予報対象時間: 14日7時 CET ~ 15日7時 CET
風向・風速東北東 4m/s
視程8000m
全天の8割程度の雲 雲底高度 460m
14日7時 CET ~ 15日1時 CET に 確率 40% で一時的に
視程3500m
天気現象弱い雪
全天の8割程度の雲 雲底高度 270m
TAF EDDT 140500Z 1406/1506 07007KT 8000 BKN015
PROB40 TEMPO 1406/1424 3500 -SN BKN009